createdAt,value
2022-09-02T00:01:24.372Z,1.40
2022-09-02T00:03:51.843Z,1.27
2022-09-02T00:06:18.566Z,1.50
2022-09-02T00:08:45.221Z,1.73
2022-09-02T00:11:17.460Z,1.23
2022-09-02T00:13:44.371Z,1.30
2022-09-02T00:16:11.334Z,1.30
2022-09-02T00:18:38.292Z,1.30
2022-09-02T00:21:04.984Z,1.60
2022-09-02T00:23:32.057Z,1.50
2022-09-02T00:25:58.732Z,1.27
2022-09-02T00:28:25.370Z,1.10
2022-09-02T00:30:51.992Z,1.40
2022-09-02T00:33:18.793Z,1.60
2022-09-02T00:35:45.543Z,1.45
2022-09-02T00:38:12.290Z,2.30
2022-09-02T00:40:39.246Z,1.95
2022-09-02T00:43:08.009Z,1.50
2022-09-02T00:45:35.971Z,1.80
2022-09-02T00:48:02.720Z,1.42
2022-09-02T00:50:30.502Z,1.60
2022-09-02T00:53:00.697Z,1.83
2022-09-02T00:55:30.003Z,1.20
2022-09-02T00:58:01.978Z,1.35
2022-09-02T01:00:34.696Z,1.38
2022-09-02T01:03:03.869Z,1.48
2022-09-02T01:05:33.046Z,1.42
2022-09-02T01:07:59.836Z,1.83
2022-09-02T01:10:33.506Z,1.70
2022-09-02T01:13:07.116Z,2.10
2022-09-02T01:15:39.510Z,2.33
2022-09-02T01:18:07.030Z,2.70
2022-09-02T01:20:33.962Z,1.55
2022-09-02T01:23:02.169Z,1.50
2022-09-02T01:25:31.185Z,1.80
2022-09-02T01:28:07.214Z,1.88
2022-09-02T01:30:35.434Z,1.75
2022-09-02T01:33:02.187Z,1.40
2022-09-02T01:35:29.517Z,1.50
2022-09-02T01:37:57.390Z,1.90
2022-09-02T01:40:24.730Z,1.38
2022-09-02T01:42:55.215Z,1.30
2022-09-02T01:45:22.140Z,1.20
2022-09-02T01:47:48.799Z,1.30
2022-09-02T01:50:15.479Z,1.90
2022-09-02T01:52:42.710Z,1.80
2022-09-02T01:55:09.518Z,1.45
2022-09-02T01:57:36.243Z,1.50
2022-09-02T02:00:04.190Z,1.50
2022-09-02T02:02:30.957Z,1.30
2022-09-02T02:04:57.673Z,1.90
2022-09-02T02:07:24.890Z,1.63
2022-09-02T02:09:51.715Z,1.38
2022-09-02T02:12:18.870Z,1.50
2022-09-02T02:14:45.493Z,1.50
2022-09-02T02:17:12.213Z,1.30
2022-09-02T02:19:38.870Z,1.40
2022-09-02T02:22:05.505Z,1.35
2022-09-02T02:24:32.112Z,1.98
2022-09-02T02:26:58.714Z,1.48
2022-09-02T02:29:25.333Z,1.27
2022-09-02T02:31:51.986Z,1.23
2022-09-02T02:34:18.634Z,1.10
2022-09-02T02:36:45.341Z,1.45
2022-09-02T02:39:12.090Z,1.13
2022-09-02T02:41:39.522Z,1.50
2022-09-02T02:44:06.265Z,1.40
2022-09-02T02:46:35.566Z,1.10
2022-09-02T02:49:03.909Z,1.20
2022-09-02T02:51:30.519Z,1.40
2022-09-02T02:53:58.970Z,1.27
2022-09-02T02:56:25.778Z,1.30
2022-09-02T02:58:52.373Z,1.40
2022-09-02T03:01:19.036Z,1.40
2022-09-02T03:03:45.750Z,1.40
2022-09-02T03:06:12.364Z,1.10
2022-09-02T03:08:38.975Z,1.35
2022-09-02T03:11:06.995Z,1.73
2022-09-02T03:13:34.865Z,1.35
2022-09-02T03:16:01.840Z,1.20
2022-09-02T03:18:28.533Z,1.27
2022-09-02T03:20:55.551Z,1.42
2022-09-02T03:23:22.239Z,1.45
2022-09-02T03:25:49.021Z,1.20
2022-09-02T03:28:15.890Z,1.13
2022-09-02T03:30:44.955Z,1.30
2022-09-02T03:33:11.586Z,1.02
2022-09-02T03:35:40.146Z,1.40
2022-09-02T03:38:06.890Z,1.30
2022-09-02T03:40:33.536Z,1.42
2022-09-02T03:43:00.793Z,1.60
2022-09-02T03:45:27.765Z,1.70
2022-09-02T03:47:54.450Z,1.60
2022-09-02T03:50:23.543Z,3.00
2022-09-02T03:52:50.306Z,2.72
2022-09-02T03:55:18.191Z,1.48
2022-09-02T03:57:44.910Z,2.10
2022-09-02T04:00:12.650Z,1.63
2022-09-02T04:02:40.133Z,2.13
2022-09-02T04:05:07.322Z,1.70
2022-09-02T04:07:42.691Z,1.85
2022-09-02T04:10:13.676Z,1.60
2022-09-02T04:12:40.350Z,1.08
2022-09-02T04:15:08.007Z,1.50
2022-09-02T04:17:38.655Z,1.48
2022-09-02T04:22:33.018Z,1.17
2022-09-02T04:24:59.803Z,1.80
2022-09-02T04:27:26.485Z,1.67
2022-09-02T04:29:53.152Z,1.35
2022-09-02T04:32:21.646Z,1.65
2022-09-02T04:34:49.866Z,1.33
2022-09-02T04:37:16.659Z,1.73
2022-09-02T04:39:43.323Z,1.77
2022-09-02T04:42:10.338Z,5.18
2022-09-02T04:44:37.386Z,2.00
2022-09-02T04:47:04.557Z,1.70
2022-09-02T04:49:33.200Z,1.73
2022-09-02T04:52:00.759Z,1.88
2022-09-02T04:54:27.840Z,1.48
2022-09-02T04:56:54.931Z,1.50
2022-09-02T04:59:21.959Z,1.58
2022-09-02T05:01:50.258Z,1.80
2022-09-02T05:04:17.444Z,1.48
2022-09-02T05:06:44.878Z,1.70
2022-09-02T05:09:12.012Z,2.00
2022-09-02T05:11:39.201Z,1.75
2022-09-02T05:14:06.838Z,1.60
2022-09-02T05:16:36.539Z,1.55
2022-09-02T05:19:03.977Z,1.40
2022-09-02T05:21:34.216Z,1.50
2022-09-02T05:24:01.627Z,1.45
2022-09-02T05:26:28.659Z,1.15
2022-09-02T05:28:55.705Z,1.50
2022-09-02T05:31:22.940Z,1.90
2022-09-02T05:33:50.047Z,1.70
2022-09-02T05:36:18.397Z,2.38
2022-09-02T05:38:45.661Z,1.88
2022-09-02T05:41:14.543Z,2.33
2022-09-02T05:43:41.673Z,2.15
2022-09-02T05:46:09.162Z,1.73
2022-09-02T05:48:55.473Z,1.60
2022-09-02T05:51:22.914Z,1.90
2022-09-02T05:53:53.302Z,1.73
2022-09-02T05:56:21.223Z,2.40
2022-09-02T05:58:48.259Z,1.80
2022-09-02T06:01:15.714Z,1.70
2022-09-02T06:03:42.766Z,1.52
2022-09-02T06:06:09.946Z,1.80
2022-09-02T06:08:37.040Z,1.50
2022-09-02T06:11:04.198Z,1.67
2022-09-02T06:13:31.644Z,1.80
2022-09-02T06:15:58.718Z,1.60
2022-09-02T06:18:26.664Z,1.88
2022-09-02T06:20:53.813Z,2.28
2022-09-02T06:23:20.945Z,1.90
2022-09-02T06:25:48.646Z,1.75
2022-09-02T06:28:15.978Z,1.58
2022-09-02T06:30:43.731Z,2.53
2022-09-02T06:33:11.079Z,1.60
2022-09-02T06:35:38.866Z,1.65
2022-09-02T06:38:05.937Z,1.42
2022-09-02T06:40:33.128Z,1.60
2022-09-02T06:43:00.306Z,1.45
2022-09-02T06:45:28.535Z,1.33
2022-09-02T06:47:55.581Z,1.60
2022-09-02T06:50:22.702Z,1.42
2022-09-02T06:52:49.836Z,1.65
2022-09-02T06:55:18.026Z,1.30
2022-09-02T06:57:45.082Z,1.42
2022-09-02T07:00:12.381Z,1.42
2022-09-02T07:02:39.582Z,1.58
2022-09-02T07:05:15.518Z,1.42
2022-09-02T07:07:43.298Z,1.40
2022-09-02T07:10:11.814Z,1.30
2022-09-02T07:12:39.034Z,1.20
2022-09-02T07:15:06.488Z,1.00
2022-09-02T07:17:33.530Z,1.20
2022-09-02T07:20:00.338Z,1.00
2022-09-02T07:22:27.654Z,1.02
2022-09-02T07:24:54.343Z,0.90
2022-09-02T07:27:21.202Z,1.05
2022-09-02T07:29:49.069Z,0.98
2022-09-02T07:32:16.707Z,1.02
2022-09-02T07:34:43.590Z,1.25
2022-09-02T07:37:11.067Z,1.05
2022-09-02T07:39:37.888Z,1.00
2022-09-02T07:42:04.791Z,1.00
2022-09-02T07:44:34.166Z,1.02
2022-09-02T07:47:00.845Z,1.05
2022-09-02T07:49:27.976Z,1.20
2022-09-02T07:51:54.759Z,1.00
2022-09-02T07:54:23.160Z,1.10
2022-09-02T07:56:49.957Z,1.00
2022-09-02T07:59:17.050Z,0.85
2022-09-02T08:04:11.085Z,1.05
2022-09-02T08:06:38.230Z,1.10
2022-09-02T08:09:06.596Z,0.90
2022-09-02T08:11:35.793Z,0.98
2022-09-02T08:14:03.061Z,0.98
2022-09-02T08:16:30.198Z,0.98
2022-09-02T08:18:58.095Z,1.10
2022-09-02T08:21:27.888Z,1.10
2022-09-02T08:23:54.976Z,0.90
2022-09-02T08:26:22.118Z,0.80
2022-09-02T08:28:50.545Z,1.05
2022-09-02T08:31:18.552Z,1.10
2022-09-02T08:33:45.706Z,0.90
2022-09-02T08:36:14.954Z,1.08
2022-09-02T08:38:42.367Z,1.02
2022-09-02T08:41:13.659Z,0.90
2022-09-02T08:43:40.792Z,1.00
2022-09-02T08:46:09.298Z,0.80
2022-09-02T08:48:45.432Z,0.82
2022-09-02T08:51:15.573Z,1.00
2022-09-02T08:53:48.846Z,0.90
2022-09-02T08:56:17.337Z,0.85
2022-09-02T08:58:47.024Z,0.60
2022-09-02T09:01:24.331Z,0.77
2022-09-02T09:03:51.417Z,0.95
2022-09-02T09:06:21.494Z,0.80
2022-09-02T09:08:52.111Z,0.80
2022-09-02T09:11:22.169Z,0.85
2022-09-02T09:14:04.460Z,0.70
2022-09-02T09:16:32.274Z,0.70
2022-09-02T09:19:15.621Z,0.70
2022-09-02T09:21:43.008Z,0.93
2022-09-02T09:24:25.317Z,1.02
2022-09-02T09:26:53.428Z,0.80
2022-09-02T09:29:20.490Z,0.93
2022-09-02T09:31:49.625Z,1.20
2022-09-02T09:34:16.708Z,0.98
2022-09-02T09:36:51.510Z,0.82
2022-09-02T09:39:26.105Z,0.80
2022-09-02T09:41:54.372Z,0.80
2022-09-02T09:44:39.566Z,1.00
2022-09-02T09:47:08.156Z,0.82
2022-09-02T09:49:35.318Z,1.08
2022-09-02T09:52:02.412Z,0.90
2022-09-02T09:54:29.505Z,0.70
2022-09-02T09:56:56.308Z,0.82
2022-09-02T09:59:56.853Z,0.80
2022-09-02T10:02:25.226Z,1.00
2022-09-02T10:05:10.366Z,0.82
2022-09-02T10:07:38.832Z,0.88
2022-09-02T10:10:10.732Z,1.20
2022-09-02T10:12:37.361Z,0.82
2022-09-02T10:15:04.296Z,1.40
2022-09-02T10:17:49.331Z,0.90
2022-09-02T10:21:11.433Z,1.10
2022-09-02T10:23:42.905Z,0.88
2022-09-02T10:26:13.610Z,0.82
2022-09-02T10:29:03.437Z,0.82
2022-09-02T10:31:49.992Z,0.65
2022-09-02T10:34:21.300Z,0.60
2022-09-02T10:36:51.324Z,0.82
2022-09-02T10:39:24.418Z,0.73
2022-09-02T10:41:52.053Z,0.80
2022-09-02T10:44:30.239Z,0.73
2022-09-02T10:47:06.908Z,0.75
2022-09-02T10:49:39.904Z,0.70
2022-09-02T10:52:34.442Z,0.88
2022-09-02T10:55:04.602Z,0.80
2022-09-02T10:57:33.694Z,1.00
2022-09-02T11:00:14.550Z,0.80
2022-09-02T11:03:07.426Z,0.82
2022-09-02T11:05:35.021Z,0.98
2022-09-02T11:08:04.435Z,0.90
2022-09-02T11:10:32.508Z,0.65
2022-09-02T11:13:07.405Z,0.70
2022-09-02T11:18:27.967Z,0.77
2022-09-02T11:20:57.331Z,0.60
2022-09-02T11:23:36.045Z,0.90
2022-09-02T11:26:05.736Z,1.60
2022-09-02T11:28:34.616Z,0.90
2022-09-02T11:31:22.028Z,2.20
2022-09-02T11:33:51.953Z,0.73
2022-09-02T11:36:19.102Z,0.73
2022-09-02T11:39:07.692Z,0.80
2022-09-02T11:41:37.917Z,0.90
2022-09-02T11:44:20.114Z,0.90
2022-09-02T11:47:03.932Z,0.70
2022-09-02T11:49:55.183Z,0.80
2022-09-02T11:52:57.540Z,0.73
2022-09-02T11:55:26.630Z,0.85
2022-09-02T11:57:59.881Z,0.80
2022-09-02T12:00:31.040Z,0.80
2022-09-02T12:03:04.831Z,0.80
2022-09-02T12:05:39.851Z,0.73
2022-09-02T12:08:27.241Z,0.90
2022-09-02T12:10:59.215Z,0.90
2022-09-02T12:13:40.995Z,0.70
2022-09-02T12:16:19.162Z,0.70
2022-09-02T12:18:46.626Z,0.75
2022-09-02T12:21:23.174Z,1.02
2022-09-02T12:23:53.927Z,0.98
2022-09-02T12:26:24.228Z,0.63
2022-09-02T12:28:53.178Z,0.85
2022-09-02T12:31:30.174Z,0.68
2022-09-02T12:33:58.049Z,0.75
2022-09-02T12:36:38.944Z,0.80
2022-09-02T12:39:30.605Z,0.82
2022-09-02T12:42:03.833Z,0.63
2022-09-02T12:44:49.773Z,0.90
2022-09-02T12:47:38.918Z,0.80
2022-09-02T12:50:24.481Z,0.80
2022-09-02T12:52:52.183Z,0.70
2022-09-02T12:55:19.292Z,0.90
2022-09-02T12:57:53.745Z,0.80
2022-09-02T13:00:30.361Z,0.75
2022-09-02T13:03:00.682Z,0.80
2022-09-02T13:05:29.439Z,0.80
2022-09-02T13:08:08.729Z,0.98
2022-09-02T13:10:41.802Z,0.77
2022-09-02T13:13:27.667Z,1.10
2022-09-02T13:16:15.568Z,0.90
2022-09-02T13:18:46.164Z,1.35
2022-09-02T13:21:19.041Z,1.00
2022-09-02T13:23:46.094Z,0.90
2022-09-02T13:26:47.763Z,0.80
2022-09-02T13:29:49.714Z,0.88
2022-09-02T13:32:19.318Z,0.90
2022-09-02T13:34:47.665Z,0.90
2022-09-02T13:37:59.513Z,0.98
2022-09-02T13:40:29.891Z,0.63
2022-09-02T13:42:58.204Z,0.70
2022-09-02T13:45:26.313Z,0.70
2022-09-02T13:47:57.571Z,0.95
2022-09-02T13:50:31.103Z,0.73
2022-09-02T13:55:52.038Z,0.98
2022-09-02T13:58:42.584Z,0.68
2022-09-02T14:01:21.980Z,0.65
2022-09-02T14:03:50.079Z,0.80
2022-09-02T14:06:17.321Z,0.90
2022-09-02T14:08:44.460Z,0.90
2022-09-02T14:11:15.737Z,0.85
2022-09-02T14:13:43.354Z,0.63
2022-09-02T14:16:33.171Z,0.77
2022-09-02T14:19:04.087Z,1.00
2022-09-02T14:21:31.140Z,0.90
2022-09-02T14:23:57.790Z,0.77
2022-09-02T14:26:38.080Z,0.80
2022-09-02T14:29:08.082Z,0.90
2022-09-02T14:31:35.002Z,0.68
2022-09-02T14:34:01.839Z,0.50
2022-09-02T14:36:34.060Z,0.73
2022-09-02T14:39:30.705Z,0.88
2022-09-02T14:41:57.886Z,0.88
2022-09-02T14:44:36.262Z,0.82
2022-09-02T14:47:06.933Z,0.60
2022-09-02T14:49:37.068Z,0.70
2022-09-02T14:52:05.473Z,1.00
2022-09-02T14:54:45.085Z,0.80
2022-09-02T14:57:32.904Z,0.80
2022-09-02T15:00:11.816Z,0.70
2022-09-02T15:02:40.553Z,0.80
2022-09-02T15:05:08.613Z,0.88
2022-09-02T15:07:35.686Z,0.90
2022-09-02T15:10:02.815Z,0.93
2022-09-02T15:12:33.319Z,0.73
2022-09-02T15:15:00.101Z,0.70
2022-09-02T15:17:26.967Z,0.85
2022-09-02T15:19:53.627Z,0.70
2022-09-02T15:22:20.506Z,0.60
2022-09-02T15:24:48.553Z,0.60
2022-09-02T15:27:15.386Z,1.00
2022-09-02T15:29:44.002Z,0.70
2022-09-02T15:32:10.620Z,0.70
2022-09-02T15:34:37.230Z,0.82
2022-09-02T15:37:03.915Z,0.90
2022-09-02T15:39:30.704Z,1.02
2022-09-02T15:41:57.473Z,0.88
2022-09-02T15:44:28.296Z,0.85
2022-09-02T15:46:55.433Z,0.60
2022-09-02T15:49:22.451Z,0.82
2022-09-02T15:51:49.773Z,0.70
2022-09-02T15:54:17.640Z,0.90
2022-09-02T15:56:45.065Z,0.73
2022-09-02T15:59:13.686Z,0.80
2022-09-02T16:01:43.652Z,0.77
2022-09-02T16:04:10.905Z,0.65
2022-09-02T16:06:42.688Z,1.00
2022-09-02T16:09:10.304Z,0.60
2022-09-02T16:11:40.822Z,0.98
2022-09-02T16:14:07.541Z,0.90
2022-09-02T16:16:37.370Z,0.80
2022-09-02T16:21:31.429Z,0.93
2022-09-02T16:23:58.487Z,0.90
2022-09-02T16:26:32.098Z,1.10
2022-09-02T16:29:00.017Z,0.80
2022-09-02T16:31:27.756Z,1.10
2022-09-02T16:33:59.478Z,1.38
2022-09-02T16:36:26.895Z,0.95
2022-09-02T16:39:00.988Z,1.20
2022-09-02T16:41:34.404Z,1.38
2022-09-02T16:44:02.920Z,0.77
2022-09-02T16:46:29.909Z,1.10
2022-09-02T16:48:56.653Z,0.90
2022-09-02T16:51:24.153Z,0.70
2022-09-02T16:53:55.060Z,0.70
2022-09-02T16:56:23.541Z,1.00
2022-09-02T16:58:50.808Z,1.30
2022-09-02T17:01:17.698Z,0.98
2022-09-02T17:03:45.369Z,0.90
2022-09-02T17:06:12.084Z,0.88
2022-09-02T17:08:38.879Z,0.80
2022-09-02T17:11:22.057Z,0.85
2022-09-02T17:13:59.353Z,0.98
2022-09-02T17:16:27.316Z,0.70
2022-09-02T17:18:54.625Z,1.00
2022-09-02T17:21:29.043Z,0.88
2022-09-02T17:23:56.149Z,0.77
2022-09-02T17:26:27.246Z,1.38
2022-09-02T17:28:55.581Z,1.30
2022-09-02T17:31:30.694Z,1.02
2022-09-02T17:33:58.782Z,1.20
2022-09-02T17:36:28.846Z,1.15
2022-09-02T17:38:57.052Z,1.00
2022-09-02T17:41:43.112Z,0.90
2022-09-02T17:44:10.082Z,0.98
2022-09-02T17:46:36.718Z,0.90
2022-09-02T17:49:16.870Z,0.82
2022-09-02T17:51:44.402Z,1.02
2022-09-02T17:54:11.194Z,0.85
2022-09-02T17:56:51.128Z,1.20
2022-09-02T17:59:38.889Z,1.10
2022-09-02T18:02:14.923Z,1.05
2022-09-02T18:05:03.366Z,1.15
2022-09-02T18:08:03.433Z,0.93
2022-09-02T18:10:34.327Z,1.20
2022-09-02T18:13:06.183Z,1.00
2022-09-02T18:15:37.456Z,1.73
2022-09-02T18:18:04.324Z,1.77
2022-09-02T18:20:32.048Z,1.10
2022-09-02T18:22:58.696Z,1.05
2022-09-02T18:25:55.853Z,1.10
2022-09-02T18:28:44.245Z,0.85
2022-09-02T18:31:40.781Z,0.88
2022-09-02T18:34:30.608Z,1.00
2022-09-02T18:37:05.697Z,1.63
2022-09-02T18:40:03.615Z,1.00
2022-09-02T18:42:43.159Z,1.10
2022-09-02T18:45:23.170Z,1.20
2022-09-02T18:48:12.228Z,1.00
2022-09-02T18:50:51.604Z,1.00
2022-09-02T18:53:21.682Z,1.10
2022-09-02T18:55:48.638Z,1.02
2022-09-02T18:58:49.141Z,0.80
2022-09-02T19:01:29.935Z,0.88
2022-09-02T19:03:59.879Z,1.10
2022-09-02T19:06:34.197Z,1.08
2022-09-02T19:09:08.657Z,0.90
2022-09-02T19:11:37.072Z,0.90
2022-09-02T19:14:28.520Z,1.05
2022-09-02T19:16:57.567Z,1.13
2022-09-02T19:19:24.777Z,0.80
2022-09-02T19:21:53.223Z,1.10
2022-09-02T19:24:25.922Z,0.85
2022-09-02T19:27:01.140Z,1.50
2022-09-02T19:29:28.018Z,1.20
2022-09-02T19:31:54.974Z,1.05
2022-09-02T19:34:21.872Z,1.33
2022-09-02T19:36:49.296Z,0.88
2022-09-02T19:39:15.977Z,1.00
2022-09-02T19:41:43.033Z,1.23
2022-09-02T19:44:12.484Z,4.30
2022-09-02T19:47:24.725Z,3.87
2022-09-02T19:49:28.904Z,3.83
2022-09-02T19:51:56.028Z,3.15
2022-09-02T19:54:23.155Z,3.80
2022-09-02T19:56:50.267Z,1.80
2022-09-02T19:59:17.375Z,1.30
2022-09-02T20:01:44.428Z,2.05
2022-09-02T20:04:11.784Z,1.30
2022-09-02T20:06:39.456Z,1.30
2022-09-02T20:09:07.119Z,1.17
2022-09-02T20:11:34.832Z,1.20
2022-09-02T20:14:04.304Z,1.02
2022-09-02T20:16:32.897Z,1.27
2022-09-02T20:19:00.043Z,1.20
2022-09-02T20:21:37.644Z,1.50
2022-09-02T20:24:05.951Z,1.20
2022-09-02T20:26:40.635Z,1.25
2022-09-02T20:29:09.902Z,1.08
2022-09-02T20:31:37.024Z,1.10
2022-09-02T20:34:27.270Z,1.30
2022-09-02T20:36:57.465Z,1.30
2022-09-02T20:39:30.688Z,1.30
2022-09-02T20:41:57.813Z,1.30
2022-09-02T20:44:31.001Z,1.10
2022-09-02T20:47:07.573Z,0.80
2022-09-02T20:49:43.704Z,1.35
2022-09-02T20:52:14.836Z,0.88
2022-09-02T20:54:48.639Z,1.20
2022-09-02T20:57:34.784Z,0.82
2022-09-02T21:00:04.599Z,1.40
2022-09-02T21:02:50.247Z,1.10
2022-09-02T21:05:22.868Z,1.15
2022-09-02T21:07:51.833Z,1.10
2022-09-02T21:10:23.153Z,1.23
2022-09-02T21:12:54.986Z,1.10
2022-09-02T21:15:25.171Z,1.15
2022-09-02T21:17:57.627Z,1.58
2022-09-02T21:20:47.988Z,1.33
2022-09-02T21:23:21.202Z,1.27
2022-09-02T21:25:52.729Z,1.00
2022-09-02T21:28:21.210Z,1.33
2022-09-02T21:30:52.225Z,1.40
2022-09-02T21:33:19.303Z,1.15
2022-09-02T21:35:47.449Z,1.20
2022-09-02T21:38:20.127Z,1.10
2022-09-02T21:41:09.091Z,1.15
2022-09-02T21:43:36.147Z,1.15
2022-09-02T21:46:12.624Z,1.70
2022-09-02T21:48:49.034Z,1.05
2022-09-02T21:51:19.007Z,1.25
2022-09-02T21:53:49.090Z,1.00
2022-09-02T21:56:34.962Z,1.00
2022-09-02T21:59:03.084Z,0.93
2022-09-02T22:01:42.162Z,0.82
2022-09-02T22:04:15.371Z,0.80
2022-09-02T22:06:43.556Z,1.20
2022-09-02T22:09:11.567Z,0.98
2022-09-02T22:11:40.998Z,0.80
2022-09-02T22:14:14.389Z,0.85
2022-09-02T22:17:00.268Z,0.88
2022-09-02T22:19:30.130Z,0.80
2022-09-02T22:21:59.389Z,0.93
2022-09-02T22:24:28.994Z,0.93
2022-09-02T22:27:00.190Z,0.90
2022-09-02T22:29:31.732Z,0.82
2022-09-02T22:31:59.519Z,0.60
2022-09-02T22:34:27.827Z,0.85
2022-09-02T22:36:56.272Z,0.88
2022-09-02T22:39:42.260Z,1.00
2022-09-02T22:42:20.028Z,0.85
2022-09-02T22:45:15.618Z,1.08
2022-09-02T22:48:03.789Z,0.88
2022-09-02T22:50:50.920Z,0.80
2022-09-02T22:53:18.001Z,0.60
2022-09-02T22:55:57.296Z,0.88
2022-09-02T22:58:30.812Z,0.90
2022-09-02T23:00:57.874Z,0.68
2022-09-02T23:03:35.434Z,0.70
2022-09-02T23:06:03.074Z,0.93
2022-09-02T23:08:31.604Z,0.80
2022-09-02T23:10:59.681Z,1.23
2022-09-02T23:13:26.709Z,1.10
2022-09-02T23:15:58.406Z,1.10
2022-09-02T23:18:29.541Z,0.80
2022-09-02T23:20:59.309Z,0.90
2022-09-02T23:23:38.906Z,1.00
2022-09-02T23:26:15.354Z,0.93
2022-09-02T23:28:46.395Z,0.98
2022-09-02T23:31:32.596Z,0.90
2022-09-02T23:34:11.758Z,0.80
2022-09-02T23:36:43.582Z,0.80
2022-09-02T23:39:10.657Z,1.00
2022-09-02T23:41:38.803Z,1.10
2022-09-02T23:44:06.124Z,0.93
2022-09-02T23:46:47.843Z,0.82
2022-09-02T23:49:22.144Z,0.82
2022-09-02T23:51:56.901Z,0.80
2022-09-02T23:54:50.553Z,1.15
2022-09-02T23:57:21.270Z,0.80
2022-09-02T23:59:53.158Z,0.85
